sensor_id;sensor_type;location;lat;lon;timestamp;temperature;humidity
18337;DHT22;9294;51.106;7.028;2023-03-01T00:01:35;18.30;74.90
18337;DHT22;9294;51.106;7.028;2023-03-01T00:04:03;18.30;74.90
18337;DHT22;9294;51.106;7.028;2023-03-01T00:06:30;18.40;75.00
18337;DHT22;9294;51.106;7.028;2023-03-01T00:08:57;18.30;74.90
18337;DHT22;9294;51.106;7.028;2023-03-01T00:11:26;18.30;74.90
18337;DHT22;9294;51.106;7.028;2023-03-01T00:13:54;18.30;74.80
18337;DHT22;9294;51.106;7.028;2023-03-01T00:16:24;18.30;74.80
18337;DHT22;9294;51.106;7.028;2023-03-01T00:18:51;18.30;74.90
18337;DHT22;9294;51.106;7.028;2023-03-01T00:21:20;18.30;74.90
18337;DHT22;9294;51.106;7.028;2023-03-01T00:23:46;18.30;74.90
18337;DHT22;9294;51.106;7.028;2023-03-01T00:26:14;18.30;74.80
18337;DHT22;9294;51.106;7.028;2023-03-01T00:28:42;18.20;74.70
18337;DHT22;9294;51.106;7.028;2023-03-01T00:31:11;18.20;74.70
18337;DHT22;9294;51.106;7.028;2023-03-01T00:33:38;18.20;74.80
18337;DHT22;9294;51.106;7.028;2023-03-01T00:36:06;18.20;74.70
18337;DHT22;9294;51.106;7.028;2023-03-01T00:38:36;18.20;74.70
18337;DHT22;9294;51.106;7.028;2023-03-01T00:41:04;18.20;74.70
18337;DHT22;9294;51.106;7.028;2023-03-01T00:43:31;18.20;74.60
18337;DHT22;9294;51.106;7.028;2023-03-01T00:46:02;18.20;74.60
18337;DHT22;9294;51.106;7.028;2023-03-01T00:48:28;18.20;74.70
18337;DHT22;9294;51.106;7.028;2023-03-01T00:50:55;18.20;74.60
18337;DHT22;9294;51.106;7.028;2023-03-01T00:53:22;18.10;74.50
18337;DHT22;9294;51.106;7.028;2023-03-01T00:55:50;18.10;74.50
18337;DHT22;9294;51.106;7.028;2023-03-01T00:58:16;18.20;74.60
18337;DHT22;9294;51.106;7.028;2023-03-01T01:00:43;18.20;74.50
18337;DHT22;9294;51.106;7.028;2023-03-01T01:03:10;18.20;74.40
18337;DHT22;9294;51.106;7.028;2023-03-01T01:05:36;18.20;74.50
18337;DHT22;9294;51.106;7.028;2023-03-01T01:08:03;18.10;74.30
18337;DHT22;9294;51.106;7.028;2023-03-01T01:10:30;18.10;74.30
18337;DHT22;9294;51.106;7.028;2023-03-01T01:12:57;18.10;74.30
18337;DHT22;9294;51.106;7.028;2023-03-01T01:15:24;18.10;74.30
18337;DHT22;9294;51.106;7.028;2023-03-01T01:17:51;18.10;74.30
18337;DHT22;9294;51.106;7.028;2023-03-01T01:20:18;18.10;74.30
18337;DHT22;9294;51.106;7.028;2023-03-01T01:22:45;18.10;74.30
18337;DHT22;9294;51.106;7.028;2023-03-01T01:25:11;18.10;74.30
18337;DHT22;9294;51.106;7.028;2023-03-01T01:27:38;18.10;74.20
18337;DHT22;9294;51.106;7.028;2023-03-01T01:30:07;18.10;74.20
18337;DHT22;9294;51.106;7.028;2023-03-01T01:32:34;18.10;74.30
18337;DHT22;9294;51.106;7.028;2023-03-01T01:35:01;18.10;75.00
18337;DHT22;9294;51.106;7.028;2023-03-01T01:37:27;18.10;74.30
18337;DHT22;9294;51.106;7.028;2023-03-01T01:39:56;18.00;74.20
18337;DHT22;9294;51.106;7.028;2023-03-01T01:42:23;18.00;74.20
18337;DHT22;9294;51.106;7.028;2023-03-01T01:47:52;18.00;74.10
18337;DHT22;9294;51.106;7.028;2023-03-01T01:50:21;18.00;74.20
18337;DHT22;9294;51.106;7.028;2023-03-01T01:52:48;18.00;74.20
18337;DHT22;9294;51.106;7.028;2023-03-01T01:55:18;17.90;74.10
18337;DHT22;9294;51.106;7.028;2023-03-01T01:57:49;18.00;74.20
18337;DHT22;9294;51.106;7.028;2023-03-01T02:00:19;17.90;74.10
18337;DHT22;9294;51.106;7.028;2023-03-01T02:02:48;17.90;74.10
18337;DHT22;9294;51.106;7.028;2023-03-01T02:05:24;17.90;74.10
18337;DHT22;9294;51.106;7.028;2023-03-01T02:07:51;17.90;74.10
18337;DHT22;9294;51.106;7.028;2023-03-01T02:10:19;17.90;74.10
18337;DHT22;9294;51.106;7.028;2023-03-01T02:12:46;17.90;74.10
18337;DHT22;9294;51.106;7.028;2023-03-01T02:15:13;17.90;74.10
18337;DHT22;9294;51.106;7.028;2023-03-01T02:17:40;17.90;74.10
18337;DHT22;9294;51.106;7.028;2023-03-01T02:20:14;17.90;74.10
18337;DHT22;9294;51.106;7.028;2023-03-01T02:22:45;17.90;74.10
18337;DHT22;9294;51.106;7.028;2023-03-01T02:25:23;17.80;74.00
18337;DHT22;9294;51.106;7.028;2023-03-01T02:27:56;17.80;74.10
18337;DHT22;9294;51.106;7.028;2023-03-01T02:30:26;17.80;74.10
18337;DHT22;9294;51.106;7.028;2023-03-01T02:32:56;17.80;74.20
18337;DHT22;9294;51.106;7.028;2023-03-01T02:35:28;17.80;74.20
18337;DHT22;9294;51.106;7.028;2023-03-01T02:37:55;17.70;74.10
18337;DHT22;9294;51.106;7.028;2023-03-01T02:40:28;17.70;74.10
18337;DHT22;9294;51.106;7.028;2023-03-01T02:42:57;17.70;74.00
18337;DHT22;9294;51.106;7.028;2023-03-01T02:45:26;17.70;74.00
18337;DHT22;9294;51.106;7.028;2023-03-01T02:47:53;17.70;74.00
18337;DHT22;9294;51.106;7.028;2023-03-01T02:53:11;17.70;74.00
18337;DHT22;9294;51.106;7.028;2023-03-01T02:55:39;17.70;74.00
18337;DHT22;9294;51.106;7.028;2023-03-01T02:58:07;17.60;73.80
18337;DHT22;9294;51.106;7.028;2023-03-01T03:00:38;17.70;74.00
18337;DHT22;9294;51.106;7.028;2023-03-01T03:03:12;17.70;74.00
18337;DHT22;9294;51.106;7.028;2023-03-01T03:05:39;17.60;73.80
18337;DHT22;9294;51.106;7.028;2023-03-01T03:08:06;17.60;73.80
18337;DHT22;9294;51.106;7.028;2023-03-01T03:10:35;17.70;73.90
18337;DHT22;9294;51.106;7.028;2023-03-01T03:13:04;17.60;73.80
18337;DHT22;9294;51.106;7.028;2023-03-01T03:15:32;17.60;73.80
18337;DHT22;9294;51.106;7.028;2023-03-01T03:18:05;17.60;73.80
18337;DHT22;9294;51.106;7.028;2023-03-01T03:20:33;17.70;73.90
18337;DHT22;9294;51.106;7.028;2023-03-01T03:23:00;17.60;73.80
18337;DHT22;9294;51.106;7.028;2023-03-01T03:25:28;17.60;73.80
18337;DHT22;9294;51.106;7.028;2023-03-01T03:27:55;17.60;73.80
18337;DHT22;9294;51.106;7.028;2023-03-01T03:30:25;17.60;73.80
18337;DHT22;9294;51.106;7.028;2023-03-01T03:32:52;17.60;73.80
18337;DHT22;9294;51.106;7.028;2023-03-01T03:35:22;17.60;73.80
18337;DHT22;9294;51.106;7.028;2023-03-01T03:37:50;17.50;73.70
18337;DHT22;9294;51.106;7.028;2023-03-01T03:40:32;17.50;73.70
18337;DHT22;9294;51.106;7.028;2023-03-01T03:42:58;17.50;73.70
18337;DHT22;9294;51.106;7.028;2023-03-01T03:45:25;17.50;73.70
18337;DHT22;9294;51.106;7.028;2023-03-01T03:47:52;17.50;73.80
18337;DHT22;9294;51.106;7.028;2023-03-01T03:50:20;17.50;73.80
18337;DHT22;9294;51.106;7.028;2023-03-01T03:52:47;17.50;73.80
18337;DHT22;9294;51.106;7.028;2023-03-01T03:55:14;17.50;73.80
18337;DHT22;9294;51.106;7.028;2023-03-01T03:57:45;17.50;73.80
18337;DHT22;9294;51.106;7.028;2023-03-01T04:00:18;17.50;73.80
18337;DHT22;9294;51.106;7.028;2023-03-01T04:02:46;17.50;73.80
18337;DHT22;9294;51.106;7.028;2023-03-01T04:05:15;17.50;73.80
18337;DHT22;9294;51.106;7.028;2023-03-01T04:07:44;17.50;73.80
18337;DHT22;9294;51.106;7.028;2023-03-01T04:10:13;17.50;73.80
18337;DHT22;9294;51.106;7.028;2023-03-01T04:12:39;17.50;73.90
18337;DHT22;9294;51.106;7.028;2023-03-01T04:15:09;17.40;73.70
18337;DHT22;9294;51.106;7.028;2023-03-01T04:17:39;17.40;73.70
18337;DHT22;9294;51.106;7.028;2023-03-01T04:20:08;17.40;73.80
18337;DHT22;9294;51.106;7.028;2023-03-01T04:22:38;17.40;73.90
18337;DHT22;9294;51.106;7.028;2023-03-01T04:25:07;17.40;73.90
18337;DHT22;9294;51.106;7.028;2023-03-01T04:27:34;17.40;73.90
18337;DHT22;9294;51.106;7.028;2023-03-01T04:30:03;17.40;73.90
18337;DHT22;9294;51.106;7.028;2023-03-01T04:32:30;17.40;73.80
18337;DHT22;9294;51.106;7.028;2023-03-01T04:34:57;17.40;73.80
18337;DHT22;9294;51.106;7.028;2023-03-01T04:37:24;17.40;73.80
18337;DHT22;9294;51.106;7.028;2023-03-01T04:39:51;17.40;73.90
18337;DHT22;9294;51.106;7.028;2023-03-01T04:42:19;17.30;73.80
18337;DHT22;9294;51.106;7.028;2023-03-01T04:44:46;17.30;73.80
18337;DHT22;9294;51.106;7.028;2023-03-01T04:47:13;17.40;74.00
18337;DHT22;9294;51.106;7.028;2023-03-01T04:49:39;17.50;73.90
18337;DHT22;9294;51.106;7.028;2023-03-01T04:52:06;17.60;73.80
18337;DHT22;9294;51.106;7.028;2023-03-01T04:54:34;17.70;73.70
18337;DHT22;9294;51.106;7.028;2023-03-01T04:57:02;17.80;73.60
18337;DHT22;9294;51.106;7.028;2023-03-01T04:59:30;17.80;73.50
18337;DHT22;9294;51.106;7.028;2023-03-01T05:01:57;18.00;73.40
18337;DHT22;9294;51.106;7.028;2023-03-01T05:04:25;18.10;73.30
18337;DHT22;9294;51.106;7.028;2023-03-01T05:06:52;18.20;73.20
18337;DHT22;9294;51.106;7.028;2023-03-01T05:09:19;18.20;73.20
18337;DHT22;9294;51.106;7.028;2023-03-01T05:11:46;18.30;73.20
18337;DHT22;9294;51.106;7.028;2023-03-01T05:14:13;18.40;73.10
18337;DHT22;9294;51.106;7.028;2023-03-01T05:16:41;18.50;73.10
18337;DHT22;9294;51.106;7.028;2023-03-01T05:19:08;18.50;72.90
18337;DHT22;9294;51.106;7.028;2023-03-01T05:21:41;18.50;73.60
18337;DHT22;9294;51.106;7.028;2023-03-01T05:24:21;18.60;72.70
18337;DHT22;9294;51.106;7.028;2023-03-01T05:26:48;18.60;72.70
18337;DHT22;9294;51.106;7.028;2023-03-01T05:29:17;18.70;72.60
18337;DHT22;9294;51.106;7.028;2023-03-01T05:31:45;18.80;72.50
18337;DHT22;9294;51.106;7.028;2023-03-01T05:34:12;18.80;72.40
18337;DHT22;9294;51.106;7.028;2023-03-01T05:36:39;18.80;72.20
18337;DHT22;9294;51.106;7.028;2023-03-01T05:39:05;18.90;72.10
18337;DHT22;9294;51.106;7.028;2023-03-01T05:41:32;18.90;71.90
18337;DHT22;9294;51.106;7.028;2023-03-01T05:43:59;19.00;71.80
18337;DHT22;9294;51.106;7.028;2023-03-01T05:46:25;19.00;71.70
18337;DHT22;9294;51.106;7.028;2023-03-01T05:48:53;19.00;71.50
18337;DHT22;9294;51.106;7.028;2023-03-01T05:51:20;19.00;71.50
18337;DHT22;9294;51.106;7.028;2023-03-01T05:53:47;19.10;71.60
18337;DHT22;9294;51.106;7.028;2023-03-01T05:56:14;19.10;71.50
18337;DHT22;9294;51.106;7.028;2023-03-01T05:58:40;19.20;71.50
18337;DHT22;9294;51.106;7.028;2023-03-01T06:01:11;19.20;71.40
18337;DHT22;9294;51.106;7.028;2023-03-01T06:03:38;19.20;71.30
18337;DHT22;9294;51.106;7.028;2023-03-01T06:06:06;19.20;71.20
18337;DHT22;9294;51.106;7.028;2023-03-01T06:08:33;19.20;71.30
18337;DHT22;9294;51.106;7.028;2023-03-01T06:10:59;19.20;71.10
18337;DHT22;9294;51.106;7.028;2023-03-01T06:13:26;19.20;71.10
18337;DHT22;9294;51.106;7.028;2023-03-01T06:15:53;19.20;71.10
18337;DHT22;9294;51.106;7.028;2023-03-01T06:18:20;19.10;71.10
18337;DHT22;9294;51.106;7.028;2023-03-01T06:20:52;19.10;71.10
18337;DHT22;9294;51.106;7.028;2023-03-01T06:23:21;19.10;71.10
18337;DHT22;9294;51.106;7.028;2023-03-01T06:25:48;19.10;71.90
18337;DHT22;9294;51.106;7.028;2023-03-01T06:28:14;19.10;71.00
18337;DHT22;9294;51.106;7.028;2023-03-01T06:30:41;19.10;71.10
18337;DHT22;9294;51.106;7.028;2023-03-01T06:33:08;19.10;71.00
18337;DHT22;9294;51.106;7.028;2023-03-01T06:35:35;19.10;71.00
18337;DHT22;9294;51.106;7.028;2023-03-01T06:38:03;19.10;71.30
18337;DHT22;9294;51.106;7.028;2023-03-01T06:40:31;19.10;71.80
18337;DHT22;9294;51.106;7.028;2023-03-01T06:43:01;19.10;71.80
18337;DHT22;9294;51.106;7.028;2023-03-01T06:45:27;19.10;72.70
18337;DHT22;9294;51.106;7.028;2023-03-01T06:48:01;19.10;72.70
18337;DHT22;9294;51.106;7.028;2023-03-01T06:50:29;19.20;72.90
18337;DHT22;9294;51.106;7.028;2023-03-01T06:52:56;19.20;72.60
18337;DHT22;9294;51.106;7.028;2023-03-01T06:55:22;19.20;72.90
18337;DHT22;9294;51.106;7.028;2023-03-01T06:57:55;19.20;72.80
18337;DHT22;9294;51.106;7.028;2023-03-01T07:00:23;19.20;72.60
18337;DHT22;9294;51.106;7.028;2023-03-01T07:02:50;19.20;73.70
18337;DHT22;9294;51.106;7.028;2023-03-01T07:05:17;19.20;72.80
18337;DHT22;9294;51.106;7.028;2023-03-01T07:07:44;19.10;72.80
18337;DHT22;9294;51.106;7.028;2023-03-01T07:10:11;19.10;73.00
18337;DHT22;9294;51.106;7.028;2023-03-01T07:12:38;19.00;73.20
18337;DHT22;9294;51.106;7.028;2023-03-01T07:15:09;19.00;73.40
18337;DHT22;9294;51.106;7.028;2023-03-01T07:17:36;19.00;73.70
18337;DHT22;9294;51.106;7.028;2023-03-01T07:20:03;19.00;73.80
18337;DHT22;9294;51.106;7.028;2023-03-01T07:22:30;19.00;73.70
18337;DHT22;9294;51.106;7.028;2023-03-01T07:24:57;19.00;73.50
18337;DHT22;9294;51.106;7.028;2023-03-01T07:27:23;19.00;73.40
18337;DHT22;9294;51.106;7.028;2023-03-01T07:29:50;19.00;73.40
18337;DHT22;9294;51.106;7.028;2023-03-01T07:32:18;19.10;73.50
18337;DHT22;9294;51.106;7.028;2023-03-01T07:34:45;19.20;73.50
18337;DHT22;9294;51.106;7.028;2023-03-01T07:37:11;19.20;73.30
18337;DHT22;9294;51.106;7.028;2023-03-01T07:39:38;19.20;72.90
18337;DHT22;9294;51.106;7.028;2023-03-01T07:42:05;19.30;72.90
18337;DHT22;9294;51.106;7.028;2023-03-01T07:44:31;19.40;73.20
18337;DHT22;9294;51.106;7.028;2023-03-01T07:46:58;19.40;73.00
18337;DHT22;9294;51.106;7.028;2023-03-01T07:49:26;19.40;71.90
18337;DHT22;9294;51.106;7.028;2023-03-01T07:51:53;19.40;72.70
18337;DHT22;9294;51.106;7.028;2023-03-01T07:54:20;19.50;72.70
18337;DHT22;9294;51.106;7.028;2023-03-01T07:56:47;19.50;72.00
18337;DHT22;9294;51.106;7.028;2023-03-01T07:59:14;19.50;72.30
18337;DHT22;9294;51.106;7.028;2023-03-01T08:01:40;19.40;69.10
18337;DHT22;9294;51.106;7.028;2023-03-01T08:04:07;19.30;70.50
18337;DHT22;9294;51.106;7.028;2023-03-01T08:06:36;19.30;71.00
18337;DHT22;9294;51.106;7.028;2023-03-01T08:09:02;19.30;71.40
18337;DHT22;9294;51.106;7.028;2023-03-01T08:11:29;19.30;71.10
18337;DHT22;9294;51.106;7.028;2023-03-01T08:13:56;19.40;71.80
18337;DHT22;9294;51.106;7.028;2023-03-01T08:16:23;19.40;70.60
18337;DHT22;9294;51.106;7.028;2023-03-01T08:18:50;19.40;70.90
18337;DHT22;9294;51.106;7.028;2023-03-01T08:21:18;19.40;70.60
18337;DHT22;9294;51.106;7.028;2023-03-01T08:23:46;19.40;70.60
18337;DHT22;9294;51.106;7.028;2023-03-01T08:26:14;19.40;70.90
18337;DHT22;9294;51.106;7.028;2023-03-01T08:28:42;19.40;70.60
18337;DHT22;9294;51.106;7.028;2023-03-01T08:31:16;19.40;70.60
18337;DHT22;9294;51.106;7.028;2023-03-01T08:33:44;19.40;70.20
18337;DHT22;9294;51.106;7.028;2023-03-01T08:36:16;19.40;70.50
18337;DHT22;9294;51.106;7.028;2023-03-01T08:38:42;19.40;70.60
18337;DHT22;9294;51.106;7.028;2023-03-01T08:41:10;19.40;70.60
18337;DHT22;9294;51.106;7.028;2023-03-01T08:43:37;19.40;70.30
18337;DHT22;9294;51.106;7.028;2023-03-01T08:46:04;19.40;70.20
18337;DHT22;9294;51.106;7.028;2023-03-01T08:48:31;19.40;70.40
18337;DHT22;9294;51.106;7.028;2023-03-01T08:51:07;19.40;70.00
18337;DHT22;9294;51.106;7.028;2023-03-01T08:53:33;19.40;70.60
18337;DHT22;9294;51.106;7.028;2023-03-01T08:56:00;19.40;70.90
18337;DHT22;9294;51.106;7.028;2023-03-01T08:58:29;19.40;70.90
18337;DHT22;9294;51.106;7.028;2023-03-01T09:00:56;19.40;71.00
18337;DHT22;9294;51.106;7.028;2023-03-01T09:03:23;19.30;68.30
18337;DHT22;9294;51.106;7.028;2023-03-01T09:05:50;19.10;66.10
18337;DHT22;9294;51.106;7.028;2023-03-01T09:08:16;19.00;69.20
18337;DHT22;9294;51.106;7.028;2023-03-01T09:10:43;19.00;70.10
18337;DHT22;9294;51.106;7.028;2023-03-01T09:13:10;19.00;70.20
18337;DHT22;9294;51.106;7.028;2023-03-01T09:15:38;19.00;70.20
18337;DHT22;9294;51.106;7.028;2023-03-01T09:18:05;19.10;70.30
18337;DHT22;9294;51.106;7.028;2023-03-01T09:20:32;19.10;70.30
18337;DHT22;9294;51.106;7.028;2023-03-01T09:22:59;19.10;70.30
18337;DHT22;9294;51.106;7.028;2023-03-01T09:25:25;19.10;70.20
18337;DHT22;9294;51.106;7.028;2023-03-01T09:27:52;19.00;70.20
18337;DHT22;9294;51.106;7.028;2023-03-01T09:30:19;19.10;70.30
18337;DHT22;9294;51.106;7.028;2023-03-01T09:32:47;19.10;70.20
18337;DHT22;9294;51.106;7.028;2023-03-01T09:35:14;19.10;70.10
18337;DHT22;9294;51.106;7.028;2023-03-01T09:37:41;19.10;70.10
18337;DHT22;9294;51.106;7.028;2023-03-01T09:40:17;19.20;70.40
18337;DHT22;9294;51.106;7.028;2023-03-01T09:42:52;19.30;70.50
18337;DHT22;9294;51.106;7.028;2023-03-01T09:45:26;19.30;70.50
18337;DHT22;9294;51.106;7.028;2023-03-01T09:47:55;19.20;70.40
18337;DHT22;9294;51.106;7.028;2023-03-01T09:50:23;19.20;70.40
18337;DHT22;9294;51.106;7.028;2023-03-01T09:53:00;19.10;70.30
18337;DHT22;9294;51.106;7.028;2023-03-01T09:55:31;19.10;70.30
18337;DHT22;9294;51.106;7.028;2023-03-01T09:58:04;19.00;70.20
18337;DHT22;9294;51.106;7.028;2023-03-01T10:00:37;19.10;71.00
18337;DHT22;9294;51.106;7.028;2023-03-01T10:03:13;19.20;72.00
18337;DHT22;9294;51.106;7.028;2023-03-01T10:05:47;19.10;73.30
18337;DHT22;9294;51.106;7.028;2023-03-01T10:08:40;19.20;72.90
18337;DHT22;9294;51.106;7.028;2023-03-01T10:11:19;19.20;73.10
18337;DHT22;9294;51.106;7.028;2023-03-01T10:13:50;19.10;72.90
18337;DHT22;9294;51.106;7.028;2023-03-01T10:16:22;19.10;72.80
18337;DHT22;9294;51.106;7.028;2023-03-01T10:18:58;19.10;72.60
18337;DHT22;9294;51.106;7.028;2023-03-01T10:21:27;19.00;72.30
18337;DHT22;9294;51.106;7.028;2023-03-01T10:23:53;19.00;72.20
18337;DHT22;9294;51.106;7.028;2023-03-01T10:26:38;19.00;71.90
18337;DHT22;9294;51.106;7.028;2023-03-01T10:29:08;19.00;71.70
18337;DHT22;9294;51.106;7.028;2023-03-01T10:31:41;19.00;71.70
18337;DHT22;9294;51.106;7.028;2023-03-01T10:34:15;19.00;71.50
18337;DHT22;9294;51.106;7.028;2023-03-01T10:36:43;18.90;71.40
18337;DHT22;9294;51.106;7.028;2023-03-01T10:39:15;19.00;71.40
18337;DHT22;9294;51.106;7.028;2023-03-01T10:41:59;19.00;71.60
18337;DHT22;9294;51.106;7.028;2023-03-01T10:44:42;19.00;71.70
18337;DHT22;9294;51.106;7.028;2023-03-01T10:47:18;19.00;71.30
18337;DHT22;9294;51.106;7.028;2023-03-01T10:49:57;19.00;71.40
18337;DHT22;9294;51.106;7.028;2023-03-01T10:52:35;19.10;71.60
18337;DHT22;9294;51.106;7.028;2023-03-01T10:55:19;19.10;71.70
18337;DHT22;9294;51.106;7.028;2023-03-01T10:57:50;19.10;72.40
18337;DHT22;9294;51.106;7.028;2023-03-01T11:00:32;19.20;71.70
18337;DHT22;9294;51.106;7.028;2023-03-01T11:03:10;19.30;71.90
18337;DHT22;9294;51.106;7.028;2023-03-01T11:05:52;19.40;72.00
18337;DHT22;9294;51.106;7.028;2023-03-01T11:08:30;19.50;72.00
18337;DHT22;9294;51.106;7.028;2023-03-01T11:11:05;19.40;71.90
18337;DHT22;9294;51.106;7.028;2023-03-01T11:13:32;19.40;72.00
18337;DHT22;9294;51.106;7.028;2023-03-01T11:16:00;19.40;72.20
18337;DHT22;9294;51.106;7.028;2023-03-01T11:18:30;19.40;72.00
18337;DHT22;9294;51.106;7.028;2023-03-01T11:20:59;19.40;72.00
18337;DHT22;9294;51.106;7.028;2023-03-01T11:23:28;19.40;71.90
18337;DHT22;9294;51.106;7.028;2023-03-01T11:25:56;19.30;72.00
18337;DHT22;9294;51.106;7.028;2023-03-01T11:28:24;19.30;72.10
18337;DHT22;9294;51.106;7.028;2023-03-01T11:30:55;19.40;72.50
18337;DHT22;9294;51.106;7.028;2023-03-01T11:33:33;19.40;72.60
18337;DHT22;9294;51.106;7.028;2023-03-01T11:36:06;19.40;72.60
18337;DHT22;9294;51.106;7.028;2023-03-01T11:38:35;19.30;72.40
18337;DHT22;9294;51.106;7.028;2023-03-01T11:41:07;19.30;72.40
18337;DHT22;9294;51.106;7.028;2023-03-01T11:43:38;19.30;72.50
18337;DHT22;9294;51.106;7.028;2023-03-01T11:49:30;19.40;72.70
18337;DHT22;9294;51.106;7.028;2023-03-01T11:52:06;19.30;72.60
18337;DHT22;9294;51.106;7.028;2023-03-01T11:54:46;19.40;72.80
18337;DHT22;9294;51.106;7.028;2023-03-01T11:57:27;19.30;72.80
18337;DHT22;9294;51.106;7.028;2023-03-01T12:00:20;19.30;72.80
18337;DHT22;9294;51.106;7.028;2023-03-01T12:03:25;19.30;73.10
18337;DHT22;9294;51.106;7.028;2023-03-01T12:06:10;19.40;73.40
18337;DHT22;9294;51.106;7.028;2023-03-01T12:08:42;19.40;73.80
18337;DHT22;9294;51.106;7.028;2023-03-01T12:11:18;19.40;73.80
18337;DHT22;9294;51.106;7.028;2023-03-01T12:17:03;19.50;73.80
18337;DHT22;9294;51.106;7.028;2023-03-01T12:19:42;19.40;74.00
18337;DHT22;9294;51.106;7.028;2023-03-01T12:22:26;19.40;74.10
18337;DHT22;9294;51.106;7.028;2023-03-01T12:25:16;19.50;74.30
18337;DHT22;9294;51.106;7.028;2023-03-01T12:28:18;19.50;74.20
18337;DHT22;9294;51.106;7.028;2023-03-01T12:31:03;19.60;74.00
18337;DHT22;9294;51.106;7.028;2023-03-01T12:33:40;19.60;73.90
18337;DHT22;9294;51.106;7.028;2023-03-01T12:36:23;19.60;73.80
18337;DHT22;9294;51.106;7.028;2023-03-01T12:39:02;19.50;73.40
18337;DHT22;9294;51.106;7.028;2023-03-01T12:41:50;19.50;73.20
18337;DHT22;9294;51.106;7.028;2023-03-01T12:44:35;19.40;72.40
18337;DHT22;9294;51.106;7.028;2023-03-01T12:47:19;19.40;72.50
18337;DHT22;9294;51.106;7.028;2023-03-01T12:49:54;19.40;72.30
18337;DHT22;9294;51.106;7.028;2023-03-01T12:52:25;19.30;72.30
18337;DHT22;9294;51.106;7.028;2023-03-01T12:54:57;19.30;72.30
18337;DHT22;9294;51.106;7.028;2023-03-01T12:57:31;19.30;72.10
18337;DHT22;9294;51.106;7.028;2023-03-01T13:00:17;19.30;72.20
18337;DHT22;9294;51.106;7.028;2023-03-01T13:02:49;19.30;72.20
18337;DHT22;9294;51.106;7.028;2023-03-01T13:05:24;19.30;72.10
18337;DHT22;9294;51.106;7.028;2023-03-01T13:07:57;19.30;72.00
18337;DHT22;9294;51.106;7.028;2023-03-01T13:10:29;19.30;71.80
18337;DHT22;9294;51.106;7.028;2023-03-01T13:13:12;19.30;71.90
18337;DHT22;9294;51.106;7.028;2023-03-01T13:15:40;19.30;71.80
18337;DHT22;9294;51.106;7.028;2023-03-01T13:18:28;19.20;71.70
18337;DHT22;9294;51.106;7.028;2023-03-01T13:20:57;19.30;71.60
18337;DHT22;9294;51.106;7.028;2023-03-01T13:23:26;19.20;71.60
18337;DHT22;9294;51.106;7.028;2023-03-01T13:26:03;19.20;71.60
18337;DHT22;9294;51.106;7.028;2023-03-01T13:28:46;19.30;72.00
18337;DHT22;9294;51.106;7.028;2023-03-01T13:34:55;19.40;72.50
18337;DHT22;9294;51.106;7.028;2023-03-01T13:37:28;19.40;72.70
18337;DHT22;9294;51.106;7.028;2023-03-01T13:39:58;19.30;72.80
18337;DHT22;9294;51.106;7.028;2023-03-01T13:42:36;19.40;73.00
18337;DHT22;9294;51.106;7.028;2023-03-01T13:45:18;19.40;73.30
18337;DHT22;9294;51.106;7.028;2023-03-01T13:47:46;19.40;73.30
18337;DHT22;9294;51.106;7.028;2023-03-01T13:50:20;19.40;73.30
18337;DHT22;9294;51.106;7.028;2023-03-01T13:52:51;19.50;73.60
18337;DHT22;9294;51.106;7.028;2023-03-01T13:55:22;19.50;73.50
18337;DHT22;9294;51.106;7.028;2023-03-01T13:57:51;19.50;73.10
18337;DHT22;9294;51.106;7.028;2023-03-01T14:00:35;19.50;72.90
18337;DHT22;9294;51.106;7.028;2023-03-01T14:03:10;19.60;72.70
18337;DHT22;9294;51.106;7.028;2023-03-01T14:05:37;19.60;72.70
18337;DHT22;9294;51.106;7.028;2023-03-01T14:08:05;19.60;72.50
18337;DHT22;9294;51.106;7.028;2023-03-01T14:10:53;19.60;72.50
18337;DHT22;9294;51.106;7.028;2023-03-01T14:13:30;19.60;72.60
18337;DHT22;9294;51.106;7.028;2023-03-01T14:16:15;19.60;72.60
18337;DHT22;9294;51.106;7.028;2023-03-01T14:18:48;19.60;72.40
18337;DHT22;9294;51.106;7.028;2023-03-01T14:21:20;19.50;72.40
18337;DHT22;9294;51.106;7.028;2023-03-01T14:23:48;19.50;72.50
18337;DHT22;9294;51.106;7.028;2023-03-01T14:26:20;19.50;72.50
18337;DHT22;9294;51.106;7.028;2023-03-01T14:28:48;19.50;72.50
18337;DHT22;9294;51.106;7.028;2023-03-01T14:31:36;19.50;72.50
18337;DHT22;9294;51.106;7.028;2023-03-01T14:34:03;19.50;72.40
18337;DHT22;9294;51.106;7.028;2023-03-01T14:36:32;19.50;72.50
18337;DHT22;9294;51.106;7.028;2023-03-01T14:38:59;19.50;72.50
18337;DHT22;9294;51.106;7.028;2023-03-01T14:41:33;19.50;73.10
18337;DHT22;9294;51.106;7.028;2023-03-01T14:44:03;19.50;73.80
18337;DHT22;9294;51.106;7.028;2023-03-01T14:46:35;19.50;74.10
18337;DHT22;9294;51.106;7.028;2023-03-01T14:49:05;19.50;74.30
18337;DHT22;9294;51.106;7.028;2023-03-01T14:51:36;19.60;74.40
18337;DHT22;9294;51.106;7.028;2023-03-01T14:54:05;19.50;74.40
18337;DHT22;9294;51.106;7.028;2023-03-01T14:56:44;19.50;74.20
18337;DHT22;9294;51.106;7.028;2023-03-01T14:59:11;19.40;73.80
18337;DHT22;9294;51.106;7.028;2023-03-01T15:01:39;19.40;74.00
18337;DHT22;9294;51.106;7.028;2023-03-01T15:04:09;19.40;73.90
18337;DHT22;9294;51.106;7.028;2023-03-01T15:06:37;19.40;74.10
18337;DHT22;9294;51.106;7.028;2023-03-01T15:09:04;19.40;74.20
18337;DHT22;9294;51.106;7.028;2023-03-01T15:11:32;19.40;74.20
18337;DHT22;9294;51.106;7.028;2023-03-01T15:14:01;19.40;74.50
18337;DHT22;9294;51.106;7.028;2023-03-01T15:16:29;19.40;74.70
18337;DHT22;9294;51.106;7.028;2023-03-01T15:19:00;19.40;74.80
18337;DHT22;9294;51.106;7.028;2023-03-01T15:21:31;19.50;75.10
18337;DHT22;9294;51.106;7.028;2023-03-01T15:24:06;19.50;75.00
18337;DHT22;9294;51.106;7.028;2023-03-01T15:26:44;19.40;74.90
18337;DHT22;9294;51.106;7.028;2023-03-01T15:29:16;19.40;75.10
18337;DHT22;9294;51.106;7.028;2023-03-01T15:31:54;19.40;74.90
18337;DHT22;9294;51.106;7.028;2023-03-01T15:34:24;19.40;74.40
18337;DHT22;9294;51.106;7.028;2023-03-01T15:36:52;19.50;74.30
18337;DHT22;9294;51.106;7.028;2023-03-01T15:39:37;19.50;74.00
18337;DHT22;9294;51.106;7.028;2023-03-01T15:42:06;19.50;73.60
18337;DHT22;9294;51.106;7.028;2023-03-01T15:44:35;19.40;73.60
18337;DHT22;9294;51.106;7.028;2023-03-01T15:47:06;19.40;73.40
18337;DHT22;9294;51.106;7.028;2023-03-01T15:49:41;19.50;73.50
18337;DHT22;9294;51.106;7.028;2023-03-01T15:52:13;19.50;73.40
18337;DHT22;9294;51.106;7.028;2023-03-01T15:54:44;19.50;73.40
18337;DHT22;9294;51.106;7.028;2023-03-01T15:57:13;19.50;73.20
18337;DHT22;9294;51.106;7.028;2023-03-01T15:59:40;19.50;73.20
18337;DHT22;9294;51.106;7.028;2023-03-01T16:02:09;19.40;72.90
18337;DHT22;9294;51.106;7.028;2023-03-01T16:04:37;19.40;73.10
18337;DHT22;9294;51.106;7.028;2023-03-01T16:07:03;19.30;72.80
18337;DHT22;9294;51.106;7.028;2023-03-01T16:09:30;19.40;72.80
18337;DHT22;9294;51.106;7.028;2023-03-01T16:11:57;19.30;73.00
18337;DHT22;9294;51.106;7.028;2023-03-01T16:14:24;19.40;73.10
18337;DHT22;9294;51.106;7.028;2023-03-01T16:16:51;19.50;73.50
18337;DHT22;9294;51.106;7.028;2023-03-01T16:19:17;19.40;73.00
18337;DHT22;9294;51.106;7.028;2023-03-01T16:21:45;19.40;73.10